sensor_id;sensor_type;location;lat;lon;timestamp;temperature;humidity
36752;DHT22;22718;49.494;7.036;2023-12-20T00:02:11;4.10;99.90
36752;DHT22;22718;49.494;7.036;2023-12-20T00:04:43;4.00;99.90
36752;DHT22;22718;49.494;7.036;2023-12-20T00:07:22;4.10;99.90
36752;DHT22;22718;49.494;7.036;2023-12-20T00:09:56;4.10;99.90
36752;DHT22;22718;49.494;7.036;2023-12-20T00:12:38;4.10;99.90
36752;DHT22;22718;49.494;7.036;2023-12-20T00:15:07;4.10;99.90
36752;DHT22;22718;49.494;7.036;2023-12-20T00:17:44;4.20;99.90
36752;DHT22;22718;49.494;7.036;2023-12-20T00:20:33;4.20;99.90
36752;DHT22;22718;49.494;7.036;2023-12-20T00:23:21;4.20;99.90
36752;DHT22;22718;49.494;7.036;2023-12-20T00:26:12;4.20;99.90
36752;DHT22;22718;49.494;7.036;2023-12-20T00:29:10;4.20;99.90
36752;DHT22;22718;49.494;7.036;2023-12-20T00:31:57;4.20;99.90
36752;DHT22;22718;49.494;7.036;2023-12-20T00:34:56;4.20;99.90
36752;DHT22;22718;49.494;7.036;2023-12-20T00:37:50;4.30;99.90
36752;DHT22;22718;49.494;7.036;2023-12-20T00:40:21;4.30;99.90
36752;DHT22;22718;49.494;7.036;2023-12-20T00:42:53;4.30;99.90
36752;DHT22;22718;49.494;7.036;2023-12-20T00:45:27;4.30;99.90
36752;DHT22;22718;49.494;7.036;2023-12-20T00:47:54;4.30;99.90
36752;DHT22;22718;49.494;7.036;2023-12-20T00:50:45;4.30;99.90
36752;DHT22;22718;49.494;7.036;2023-12-20T00:53:39;4.30;99.90
36752;DHT22;22718;49.494;7.036;2023-12-20T00:56:36;4.40;99.90
36752;DHT22;22718;49.494;7.036;2023-12-20T00:59:21;4.30;99.90
36752;DHT22;22718;49.494;7.036;2023-12-20T01:01:55;4.30;99.90
36752;DHT22;22718;49.494;7.036;2023-12-20T01:04:37;4.30;99.90
36752;DHT22;22718;49.494;7.036;2023-12-20T01:07:24;4.40;99.90
36752;DHT22;22718;49.494;7.036;2023-12-20T01:10:22;4.40;99.90
36752;DHT22;22718;49.494;7.036;2023-12-20T01:13:34;4.40;99.90
36752;DHT22;22718;49.494;7.036;2023-12-20T01:16:15;4.40;99.90
36752;DHT22;22718;49.494;7.036;2023-12-20T01:19:42;4.40;99.90
36752;DHT22;22718;49.494;7.036;2023-12-20T01:23:14;4.40;99.90
36752;DHT22;22718;49.494;7.036;2023-12-20T01:26:34;4.50;99.90
36752;DHT22;22718;49.494;7.036;2023-12-20T01:29:19;4.50;99.90
36752;DHT22;22718;49.494;7.036;2023-12-20T01:32:55;4.50;99.90
36752;DHT22;22718;49.494;7.036;2023-12-20T01:39:33;4.50;99.90
36752;DHT22;22718;49.494;7.036;2023-12-20T01:49:42;4.50;99.90
36752;DHT22;22718;49.494;7.036;2023-12-20T01:53:21;4.60;99.90
36752;DHT22;22718;49.494;7.036;2023-12-20T01:56:24;4.60;99.90
36752;DHT22;22718;49.494;7.036;2023-12-20T02:03:21;4.60;99.90
36752;DHT22;22718;49.494;7.036;2023-12-20T02:09:51;4.60;99.90
36752;DHT22;22718;49.494;7.036;2023-12-20T02:12:48;4.60;99.90
36752;DHT22;22718;49.494;7.036;2023-12-20T02:15:38;4.70;99.90
36752;DHT22;22718;49.494;7.036;2023-12-20T02:18:28;4.70;99.90
36752;DHT22;22718;49.494;7.036;2023-12-20T02:21:07;4.70;99.90
36752;DHT22;22718;49.494;7.036;2023-12-20T02:24:06;4.70;99.90
36752;DHT22;22718;49.494;7.036;2023-12-20T02:26:49;4.70;99.90
36752;DHT22;22718;49.494;7.036;2023-12-20T02:29:39;4.70;99.90
36752;DHT22;22718;49.494;7.036;2023-12-20T02:32:14;4.80;99.90
36752;DHT22;22718;49.494;7.036;2023-12-20T02:35:04;4.80;99.90
36752;DHT22;22718;49.494;7.036;2023-12-20T02:37:33;4.80;99.90
36752;DHT22;22718;49.494;7.036;2023-12-20T02:40:13;4.80;99.90
36752;DHT22;22718;49.494;7.036;2023-12-20T02:42:59;4.90;99.90
36752;DHT22;22718;49.494;7.036;2023-12-20T02:45:39;4.90;99.90
36752;DHT22;22718;49.494;7.036;2023-12-20T02:48:18;4.80;99.90
36752;DHT22;22718;49.494;7.036;2023-12-20T02:50:48;4.90;99.90
36752;DHT22;22718;49.494;7.036;2023-12-20T02:53:17;4.90;99.90
36752;DHT22;22718;49.494;7.036;2023-12-20T02:55:50;4.90;99.90
36752;DHT22;22718;49.494;7.036;2023-12-20T02:58:17;4.90;99.90
36752;DHT22;22718;49.494;7.036;2023-12-20T03:00:50;5.00;99.90
36752;DHT22;22718;49.494;7.036;2023-12-20T03:03:25;5.00;99.90
36752;DHT22;22718;49.494;7.036;2023-12-20T03:05:55;5.00;99.90
36752;DHT22;22718;49.494;7.036;2023-12-20T03:08:21;5.00;99.90
36752;DHT22;22718;49.494;7.036;2023-12-20T03:10:52;5.00;99.90
36752;DHT22;22718;49.494;7.036;2023-12-20T03:13:33;5.10;99.90
36752;DHT22;22718;49.494;7.036;2023-12-20T03:16:09;5.10;99.90
36752;DHT22;22718;49.494;7.036;2023-12-20T03:18:36;5.10;99.90
36752;DHT22;22718;49.494;7.036;2023-12-20T03:21:10;5.20;99.90
36752;DHT22;22718;49.494;7.036;2023-12-20T03:23:39;5.10;99.90
36752;DHT22;22718;49.494;7.036;2023-12-20T03:26:27;5.10;99.90
36752;DHT22;22718;49.494;7.036;2023-12-20T03:28:57;5.20;99.90
36752;DHT22;22718;49.494;7.036;2023-12-20T03:31:35;5.20;99.90
36752;DHT22;22718;49.494;7.036;2023-12-20T03:34:06;5.20;99.90
36752;DHT22;22718;49.494;7.036;2023-12-20T03:36:38;5.20;99.90
36752;DHT22;22718;49.494;7.036;2023-12-20T03:39:12;5.20;99.90
36752;DHT22;22718;49.494;7.036;2023-12-20T03:41:51;5.30;99.90
36752;DHT22;22718;49.494;7.036;2023-12-20T03:44:25;5.30;99.90
36752;DHT22;22718;49.494;7.036;2023-12-20T03:47:00;5.30;99.90
36752;DHT22;22718;49.494;7.036;2023-12-20T03:49:28;5.30;99.90
36752;DHT22;22718;49.494;7.036;2023-12-20T03:51:58;5.30;99.90
36752;DHT22;22718;49.494;7.036;2023-12-20T03:54:24;5.30;99.90
36752;DHT22;22718;49.494;7.036;2023-12-20T03:56:52;5.30;99.90
36752;DHT22;22718;49.494;7.036;2023-12-20T03:59:25;5.30;99.90
36752;DHT22;22718;49.494;7.036;2023-12-20T04:01:54;5.30;99.90
36752;DHT22;22718;49.494;7.036;2023-12-20T04:04:25;5.30;99.90
36752;DHT22;22718;49.494;7.036;2023-12-20T04:07:04;5.30;99.90
36752;DHT22;22718;49.494;7.036;2023-12-20T04:09:29;5.30;99.90
36752;DHT22;22718;49.494;7.036;2023-12-20T04:12:02;5.30;99.90
36752;DHT22;22718;49.494;7.036;2023-12-20T04:14:32;5.30;99.90
36752;DHT22;22718;49.494;7.036;2023-12-20T04:17:01;5.30;99.90
36752;DHT22;22718;49.494;7.036;2023-12-20T04:19:27;5.30;99.90
36752;DHT22;22718;49.494;7.036;2023-12-20T04:22:04;5.30;99.90
36752;DHT22;22718;49.494;7.036;2023-12-20T04:24:54;5.20;99.90
36752;DHT22;22718;49.494;7.036;2023-12-20T04:27:21;5.20;99.90
36752;DHT22;22718;49.494;7.036;2023-12-20T04:29:55;5.20;99.90
36752;DHT22;22718;49.494;7.036;2023-12-20T04:32:22;5.10;99.90
36752;DHT22;22718;49.494;7.036;2023-12-20T04:34:51;5.10;99.90
36752;DHT22;22718;49.494;7.036;2023-12-20T04:37:19;5.00;99.90
36752;DHT22;22718;49.494;7.036;2023-12-20T04:39:59;5.00;99.90
36752;DHT22;22718;49.494;7.036;2023-12-20T04:42:25;5.00;99.90
36752;DHT22;22718;49.494;7.036;2023-12-20T04:44:56;4.90;99.90
36752;DHT22;22718;49.494;7.036;2023-12-20T04:47:21;4.80;99.90
36752;DHT22;22718;49.494;7.036;2023-12-20T04:49:50;4.70;99.90
36752;DHT22;22718;49.494;7.036;2023-12-20T04:52:16;4.70;99.90
36752;DHT22;22718;49.494;7.036;2023-12-20T04:54:42;4.60;99.90
36752;DHT22;22718;49.494;7.036;2023-12-20T04:57:19;4.60;99.90
36752;DHT22;22718;49.494;7.036;2023-12-20T04:59:50;4.50;99.90
36752;DHT22;22718;49.494;7.036;2023-12-20T05:02:19;4.50;99.90
36752;DHT22;22718;49.494;7.036;2023-12-20T05:04:48;4.50;99.90
36752;DHT22;22718;49.494;7.036;2023-12-20T05:07:23;4.50;99.90
36752;DHT22;22718;49.494;7.036;2023-12-20T05:09:55;4.40;99.90
36752;DHT22;22718;49.494;7.036;2023-12-20T05:12:25;4.30;99.90
36752;DHT22;22718;49.494;7.036;2023-12-20T05:14:52;4.30;99.90
36752;DHT22;22718;49.494;7.036;2023-12-20T05:17:18;4.20;99.90
36752;DHT22;22718;49.494;7.036;2023-12-20T05:20:01;4.20;99.90
36752;DHT22;22718;49.494;7.036;2023-12-20T05:22:28;4.20;99.90
36752;DHT22;22718;49.494;7.036;2023-12-20T05:24:54;4.10;99.90
36752;DHT22;22718;49.494;7.036;2023-12-20T05:27:20;4.20;99.90
36752;DHT22;22718;49.494;7.036;2023-12-20T05:29:46;4.10;99.90
36752;DHT22;22718;49.494;7.036;2023-12-20T05:32:12;4.10;99.90
36752;DHT22;22718;49.494;7.036;2023-12-20T05:34:39;4.10;99.90
36752;DHT22;22718;49.494;7.036;2023-12-20T05:37:04;4.00;99.90
36752;DHT22;22718;49.494;7.036;2023-12-20T05:39:30;3.90;99.90
36752;DHT22;22718;49.494;7.036;2023-12-20T05:41:56;3.90;99.90
36752;DHT22;22718;49.494;7.036;2023-12-20T05:44:26;3.80;99.90
36752;DHT22;22718;49.494;7.036;2023-12-20T05:46:51;3.80;99.90
36752;DHT22;22718;49.494;7.036;2023-12-20T05:49:17;3.70;99.90
36752;DHT22;22718;49.494;7.036;2023-12-20T05:51:48;3.70;99.90
36752;DHT22;22718;49.494;7.036;2023-12-20T05:54:14;3.70;99.90
36752;DHT22;22718;49.494;7.036;2023-12-20T05:56:39;3.60;99.90
36752;DHT22;22718;49.494;7.036;2023-12-20T05:59:09;3.60;99.90
36752;DHT22;22718;49.494;7.036;2023-12-20T06:01:35;3.50;99.90
36752;DHT22;22718;49.494;7.036;2023-12-20T06:04:00;3.50;99.90
36752;DHT22;22718;49.494;7.036;2023-12-20T06:06:26;3.50;99.90
36752;DHT22;22718;49.494;7.036;2023-12-20T06:08:54;3.50;99.90
36752;DHT22;22718;49.494;7.036;2023-12-20T06:11:20;3.50;99.90
36752;DHT22;22718;49.494;7.036;2023-12-20T06:13:51;3.40;99.90
36752;DHT22;22718;49.494;7.036;2023-12-20T06:16:19;3.50;99.90
36752;DHT22;22718;49.494;7.036;2023-12-20T06:18:45;3.40;99.90
36752;DHT22;22718;49.494;7.036;2023-12-20T06:21:10;3.40;99.90
36752;DHT22;22718;49.494;7.036;2023-12-20T06:23:49;3.50;99.90
36752;DHT22;22718;49.494;7.036;2023-12-20T06:26:18;3.50;99.90
36752;DHT22;22718;49.494;7.036;2023-12-20T06:28:53;3.40;99.90
36752;DHT22;22718;49.494;7.036;2023-12-20T06:31:20;3.40;99.90
36752;DHT22;22718;49.494;7.036;2023-12-20T06:33:46;3.40;99.90
36752;DHT22;22718;49.494;7.036;2023-12-20T06:36:13;3.40;99.90
36752;DHT22;22718;49.494;7.036;2023-12-20T06:38:39;3.40;99.90
36752;DHT22;22718;49.494;7.036;2023-12-20T06:41:05;3.40;99.90
36752;DHT22;22718;49.494;7.036;2023-12-20T06:43:35;3.50;99.90
36752;DHT22;22718;49.494;7.036;2023-12-20T06:46:01;3.50;99.90
36752;DHT22;22718;49.494;7.036;2023-12-20T06:48:29;3.50;99.90
36752;DHT22;22718;49.494;7.036;2023-12-20T06:50:55;3.50;99.90
36752;DHT22;22718;49.494;7.036;2023-12-20T06:53:20;3.50;99.90
36752;DHT22;22718;49.494;7.036;2023-12-20T06:55:46;3.60;99.90
36752;DHT22;22718;49.494;7.036;2023-12-20T06:58:11;3.60;99.90
36752;DHT22;22718;49.494;7.036;2023-12-20T07:00:37;3.60;99.90
36752;DHT22;22718;49.494;7.036;2023-12-20T07:03:03;3.60;99.90
36752;DHT22;22718;49.494;7.036;2023-12-20T07:05:31;3.60;99.90
36752;DHT22;22718;49.494;7.036;2023-12-20T07:07:56;3.70;99.90
36752;DHT22;22718;49.494;7.036;2023-12-20T07:10:22;3.70;99.90
36752;DHT22;22718;49.494;7.036;2023-12-20T07:12:48;3.70;99.90
36752;DHT22;22718;49.494;7.036;2023-12-20T07:15:14;3.70;99.90
36752;DHT22;22718;49.494;7.036;2023-12-20T07:17:40;3.80;99.90
36752;DHT22;22718;49.494;7.036;2023-12-20T07:20:06;3.80;99.90
36752;DHT22;22718;49.494;7.036;2023-12-20T07:22:35;3.80;99.90
36752;DHT22;22718;49.494;7.036;2023-12-20T07:25:00;3.80;99.90
36752;DHT22;22718;49.494;7.036;2023-12-20T07:27:29;3.80;99.90
36752;DHT22;22718;49.494;7.036;2023-12-20T07:29:55;3.90;99.90
36752;DHT22;22718;49.494;7.036;2023-12-20T07:32:20;3.80;99.90
36752;DHT22;22718;49.494;7.036;2023-12-20T07:34:48;3.80;99.90
36752;DHT22;22718;49.494;7.036;2023-12-20T07:37:14;3.80;99.90
36752;DHT22;22718;49.494;7.036;2023-12-20T07:39:41;3.90;99.90
36752;DHT22;22718;49.494;7.036;2023-12-20T07:42:08;3.90;99.90
36752;DHT22;22718;49.494;7.036;2023-12-20T07:44:40;4.00;99.90
36752;DHT22;22718;49.494;7.036;2023-12-20T07:47:09;4.00;99.90
36752;DHT22;22718;49.494;7.036;2023-12-20T07:49:35;4.00;99.90
36752;DHT22;22718;49.494;7.036;2023-12-20T07:52:02;4.10;99.90
36752;DHT22;22718;49.494;7.036;2023-12-20T07:54:28;4.10;99.90
36752;DHT22;22718;49.494;7.036;2023-12-20T07:56:54;4.20;99.90
36752;DHT22;22718;49.494;7.036;2023-12-20T07:59:19;4.20;99.90
36752;DHT22;22718;49.494;7.036;2023-12-20T08:01:45;4.20;99.90
36752;DHT22;22718;49.494;7.036;2023-12-20T08:04:13;4.20;99.90
36752;DHT22;22718;49.494;7.036;2023-12-20T08:06:39;4.30;99.90
36752;DHT22;22718;49.494;7.036;2023-12-20T08:09:04;4.40;99.90
36752;DHT22;22718;49.494;7.036;2023-12-20T08:11:33;4.40;99.90
36752;DHT22;22718;49.494;7.036;2023-12-20T08:14:05;4.40;99.90
36752;DHT22;22718;49.494;7.036;2023-12-20T08:16:31;4.40;99.90
36752;DHT22;22718;49.494;7.036;2023-12-20T08:18:57;4.40;99.90
36752;DHT22;22718;49.494;7.036;2023-12-20T08:21:22;4.40;99.90
36752;DHT22;22718;49.494;7.036;2023-12-20T08:23:48;4.40;99.90
36752;DHT22;22718;49.494;7.036;2023-12-20T08:26:21;4.40;99.90
36752;DHT22;22718;49.494;7.036;2023-12-20T08:28:58;4.50;99.90
36752;DHT22;22718;49.494;7.036;2023-12-20T08:31:24;4.50;99.90
36752;DHT22;22718;49.494;7.036;2023-12-20T08:33:53;4.40;99.90
36752;DHT22;22718;49.494;7.036;2023-12-20T08:36:33;4.50;99.90
36752;DHT22;22718;49.494;7.036;2023-12-20T08:38:58;4.50;99.90
36752;DHT22;22718;49.494;7.036;2023-12-20T08:41:26;4.60;99.90
36752;DHT22;22718;49.494;7.036;2023-12-20T08:43:51;4.70;99.90
36752;DHT22;22718;49.494;7.036;2023-12-20T08:46:17;4.70;99.90
36752;DHT22;22718;49.494;7.036;2023-12-20T08:48:45;4.80;99.90
36752;DHT22;22718;49.494;7.036;2023-12-20T08:51:11;4.90;99.90
36752;DHT22;22718;49.494;7.036;2023-12-20T08:53:39;4.90;99.90
36752;DHT22;22718;49.494;7.036;2023-12-20T08:56:05;5.00;99.90
36752;DHT22;22718;49.494;7.036;2023-12-20T08:58:31;5.00;99.90
36752;DHT22;22718;49.494;7.036;2023-12-20T09:01:02;5.00;99.90
36752;DHT22;22718;49.494;7.036;2023-12-20T09:03:27;5.10;99.90
36752;DHT22;22718;49.494;7.036;2023-12-20T09:05:53;5.10;99.90
36752;DHT22;22718;49.494;7.036;2023-12-20T09:08:19;5.10;99.90
36752;DHT22;22718;49.494;7.036;2023-12-20T09:10:50;5.00;99.90
36752;DHT22;22718;49.494;7.036;2023-12-20T09:13:16;5.00;99.90
36752;DHT22;22718;49.494;7.036;2023-12-20T09:15:43;5.00;99.90
36752;DHT22;22718;49.494;7.036;2023-12-20T09:18:09;5.00;99.90
36752;DHT22;22718;49.494;7.036;2023-12-20T09:20:35;4.90;99.90
36752;DHT22;22718;49.494;7.036;2023-12-20T09:23:01;5.00;99.90
36752;DHT22;22718;49.494;7.036;2023-12-20T09:25:26;4.90;99.90
36752;DHT22;22718;49.494;7.036;2023-12-20T09:27:53;5.00;99.90
36752;DHT22;22718;49.494;7.036;2023-12-20T09:30:22;5.00;99.90
36752;DHT22;22718;49.494;7.036;2023-12-20T09:32:47;5.00;99.90
36752;DHT22;22718;49.494;7.036;2023-12-20T09:35:21;5.00;99.90
36752;DHT22;22718;49.494;7.036;2023-12-20T09:37:48;5.00;99.90
36752;DHT22;22718;49.494;7.036;2023-12-20T09:40:20;5.10;99.90
36752;DHT22;22718;49.494;7.036;2023-12-20T09:42:55;5.10;99.90
36752;DHT22;22718;49.494;7.036;2023-12-20T09:45:23;5.10;99.90
36752;DHT22;22718;49.494;7.036;2023-12-20T09:47:53;5.00;99.90
36752;DHT22;22718;49.494;7.036;2023-12-20T09:50:22;5.10;99.90
36752;DHT22;22718;49.494;7.036;2023-12-20T09:53:01;5.00;99.90
36752;DHT22;22718;49.494;7.036;2023-12-20T09:55:29;5.00;99.90
36752;DHT22;22718;49.494;7.036;2023-12-20T09:57:57;5.10;99.90
36752;DHT22;22718;49.494;7.036;2023-12-20T10:00:22;5.00;99.90
36752;DHT22;22718;49.494;7.036;2023-12-20T10:02:59;5.10;99.90
36752;DHT22;22718;49.494;7.036;2023-12-20T10:05:33;5.10;99.90
36752;DHT22;22718;49.494;7.036;2023-12-20T10:08:01;5.10;99.90
36752;DHT22;22718;49.494;7.036;2023-12-20T10:10:28;5.10;99.90
36752;DHT22;22718;49.494;7.036;2023-12-20T10:13:10;5.10;99.90
36752;DHT22;22718;49.494;7.036;2023-12-20T10:15:37;5.10;99.90
36752;DHT22;22718;49.494;7.036;2023-12-20T10:18:03;5.10;99.90
36752;DHT22;22718;49.494;7.036;2023-12-20T10:20:30;5.10;99.90
36752;DHT22;22718;49.494;7.036;2023-12-20T10:22:56;5.20;99.90
36752;DHT22;22718;49.494;7.036;2023-12-20T10:25:24;5.00;99.90
36752;DHT22;22718;49.494;7.036;2023-12-20T10:28:08;5.00;99.90
36752;DHT22;22718;49.494;7.036;2023-12-20T10:30:33;5.00;99.90
36752;DHT22;22718;49.494;7.036;2023-12-20T10:32:59;5.00;99.90
36752;DHT22;22718;49.494;7.036;2023-12-20T10:35:32;5.10;99.90
36752;DHT22;22718;49.494;7.036;2023-12-20T10:38:03;5.10;99.90
36752;DHT22;22718;49.494;7.036;2023-12-20T10:40:29;5.20;99.90
36752;DHT22;22718;49.494;7.036;2023-12-20T10:42:56;5.30;99.90
36752;DHT22;22718;49.494;7.036;2023-12-20T10:45:27;5.40;99.90
36752;DHT22;22718;49.494;7.036;2023-12-20T10:47:55;5.50;99.90
36752;DHT22;22718;49.494;7.036;2023-12-20T10:50:21;5.50;99.90
36752;DHT22;22718;49.494;7.036;2023-12-20T10:52:47;5.70;99.90
36752;DHT22;22718;49.494;7.036;2023-12-20T10:55:13;5.80;99.90
36752;DHT22;22718;49.494;7.036;2023-12-20T10:57:39;5.90;99.90
36752;DHT22;22718;49.494;7.036;2023-12-20T11:00:07;6.10;99.90
36752;DHT22;22718;49.494;7.036;2023-12-20T11:02:39;6.20;99.90
36752;DHT22;22718;49.494;7.036;2023-12-20T11:07:52;6.50;99.90
36752;DHT22;22718;49.494;7.036;2023-12-20T11:10:26;6.50;99.90
36752;DHT22;22718;49.494;7.036;2023-12-20T11:15:40;6.40;99.90
36752;DHT22;22718;49.494;7.036;2023-12-20T11:18:06;6.30;99.90
36752;DHT22;22718;49.494;7.036;2023-12-20T11:20:39;6.10;99.90
36752;DHT22;22718;49.494;7.036;2023-12-20T11:23:13;6.00;99.90
36752;DHT22;22718;49.494;7.036;2023-12-20T11:25:53;5.90;99.90
36752;DHT22;22718;49.494;7.036;2023-12-20T11:28:24;5.70;99.90
36752;DHT22;22718;49.494;7.036;2023-12-20T11:30:54;5.60;99.90
36752;DHT22;22718;49.494;7.036;2023-12-20T11:33:24;5.50;99.90
36752;DHT22;22718;49.494;7.036;2023-12-20T11:35:55;5.50;99.90
36752;DHT22;22718;49.494;7.036;2023-12-20T11:38:21;5.50;99.90
36752;DHT22;22718;49.494;7.036;2023-12-20T11:40:56;5.60;99.90
36752;DHT22;22718;49.494;7.036;2023-12-20T11:43:38;5.50;99.90
36752;DHT22;22718;49.494;7.036;2023-12-20T11:46:07;5.50;99.90
36752;DHT22;22718;49.494;7.036;2023-12-20T11:48:42;5.40;99.90
36752;DHT22;22718;49.494;7.036;2023-12-20T11:51:16;5.40;99.90
36752;DHT22;22718;49.494;7.036;2023-12-20T11:53:43;5.40;99.90
36752;DHT22;22718;49.494;7.036;2023-12-20T11:56:12;5.30;99.90
36752;DHT22;22718;49.494;7.036;2023-12-20T11:58:38;5.30;99.90
36752;DHT22;22718;49.494;7.036;2023-12-20T12:01:04;5.30;99.90
36752;DHT22;22718;49.494;7.036;2023-12-20T12:03:32;5.30;99.90
36752;DHT22;22718;49.494;7.036;2023-12-20T12:05:58;5.30;99.90
36752;DHT22;22718;49.494;7.036;2023-12-20T12:08:27;5.30;99.90
36752;DHT22;22718;49.494;7.036;2023-12-20T12:10:52;5.30;99.90
36752;DHT22;22718;49.494;7.036;2023-12-20T12:13:18;5.30;99.90
36752;DHT22;22718;49.494;7.036;2023-12-20T12:15:44;5.30;99.90
36752;DHT22;22718;49.494;7.036;2023-12-20T12:18:10;5.40;99.90
36752;DHT22;22718;49.494;7.036;2023-12-20T12:20:36;5.50;99.90
36752;DHT22;22718;49.494;7.036;2023-12-20T12:23:08;5.80;99.90
36752;DHT22;22718;49.494;7.036;2023-12-20T12:25:37;6.00;99.90
36752;DHT22;22718;49.494;7.036;2023-12-20T12:28:03;6.20;99.90
36752;DHT22;22718;49.494;7.036;2023-12-20T12:30:32;6.20;99.90
36752;DHT22;22718;49.494;7.036;2023-12-20T12:32:58;6.30;99.90
36752;DHT22;22718;49.494;7.036;2023-12-20T12:35:23;6.30;99.90
36752;DHT22;22718;49.494;7.036;2023-12-20T12:37:49;6.30;99.90
36752;DHT22;22718;49.494;7.036;2023-12-20T12:40:17;6.20;99.90
36752;DHT22;22718;49.494;7.036;2023-12-20T12:42:44;6.30;99.90
36752;DHT22;22718;49.494;7.036;2023-12-20T12:45:10;6.30;99.90
36752;DHT22;22718;49.494;7.036;2023-12-20T12:47:39;6.30;99.90
36752;DHT22;22718;49.494;7.036;2023-12-20T12:50:05;6.30;99.90
36752;DHT22;22718;49.494;7.036;2023-12-20T12:52:39;6.30;99.90
36752;DHT22;22718;49.494;7.036;2023-12-20T12:55:05;6.20;99.90
36752;DHT22;22718;49.494;7.036;2023-12-20T12:57:34;6.10;99.90
36752;DHT22;22718;49.494;7.036;2023-12-20T13:00:00;6.10;99.90
36752;DHT22;22718;49.494;7.036;2023-12-20T13:02:25;6.10;99.90
36752;DHT22;22718;49.494;7.036;2023-12-20T13:04:51;6.10;99.90
36752;DHT22;22718;49.494;7.036;2023-12-20T13:07:18;6.10;99.90
36752;DHT22;22718;49.494;7.036;2023-12-20T13:09:44;6.10;99.90
36752;DHT22;22718;49.494;7.036;2023-12-20T13:12:09;6.10;99.90
36752;DHT22;22718;49.494;7.036;2023-12-20T13:14:35;6.10;99.90
36752;DHT22;22718;49.494;7.036;2023-12-20T13:17:04;6.10;99.90
36752;DHT22;22718;49.494;7.036;2023-12-20T13:19:32;6.10;99.90
36752;DHT22;22718;49.494;7.036;2023-12-20T13:21:58;6.10;99.90
36752;DHT22;22718;49.494;7.036;2023-12-20T13:24:24;5.90;99.90
36752;DHT22;22718;49.494;7.036;2023-12-20T13:26:51;5.80;99.90
36752;DHT22;22718;49.494;7.036;2023-12-20T13:29:19;5.80;99.90
36752;DHT22;22718;49.494;7.036;2023-12-20T13:31:45;5.70;99.90
36752;DHT22;22718;49.494;7.036;2023-12-20T13:34:11;5.70;99.90
36752;DHT22;22718;49.494;7.036;2023-12-20T13:36:38;5.70;99.90
36752;DHT22;22718;49.494;7.036;2023-12-20T13:39:04;5.70;99.90
36752;DHT22;22718;49.494;7.036;2023-12-20T13:41:30;5.70;99.90
36752;DHT22;22718;49.494;7.036;2023-12-20T13:43:56;5.70;99.90
36752;DHT22;22718;49.494;7.036;2023-12-20T13:46:22;5.80;99.90
36752;DHT22;22718;49.494;7.036;2023-12-20T13:48:48;5.90;99.90
36752;DHT22;22718;49.494;7.036;2023-12-20T13:51:15;5.90;99.90
36752;DHT22;22718;49.494;7.036;2023-12-20T13:53:40;5.90;99.90
36752;DHT22;22718;49.494;7.036;2023-12-20T13:56:06;5.80;99.90
36752;DHT22;22718;49.494;7.036;2023-12-20T13:58:32;5.80;99.90
36752;DHT22;22718;49.494;7.036;2023-12-20T14:00:57;5.70;99.90
36752;DHT22;22718;49.494;7.036;2023-12-20T14:03:23;5.70;99.90
36752;DHT22;22718;49.494;7.036;2023-12-20T14:05:49;5.70;99.90
36752;DHT22;22718;49.494;7.036;2023-12-20T14:08:14;5.70;99.90
36752;DHT22;22718;49.494;7.036;2023-12-20T14:10:40;5.70;99.90
36752;DHT22;22718;49.494;7.036;2023-12-20T14:13:10;5.70;99.90
36752;DHT22;22718;49.494;7.036;2023-12-20T14:15:35;5.70;99.90
36752;DHT22;22718;49.494;7.036;2023-12-20T14:18:06;5.70;99.90
36752;DHT22;22718;49.494;7.036;2023-12-20T14:20:35;5.70;99.90
36752;DHT22;22718;49.494;7.036;2023-12-20T14:23:04;5.70;99.90
36752;DHT22;22718;49.494;7.036;2023-12-20T14:25:29;5.70;99.90
36752;DHT22;22718;49.494;7.036;2023-12-20T14:27:56;5.70;99.90
36752;DHT22;22718;49.494;7.036;2023-12-20T14:30:22;5.70;99.90
36752;DHT22;22718;49.494;7.036;2023-12-20T14:32:48;5.60;99.90
36752;DHT22;22718;49.494;7.036;2023-12-20T14:35:14;5.60;99.90
36752;DHT22;22718;49.494;7.036;2023-12-20T14:37:40;5.60;99.90
36752;DHT22;22718;49.494;7.036;2023-12-20T14:40:10;5.50;99.90
36752;DHT22;22718;49.494;7.036;2023-12-20T14:42:36;5.50;99.90
36752;DHT22;22718;49.494;7.036;2023-12-20T14:45:02;5.50;99.90
36752;DHT22;22718;49.494;7.036;2023-12-20T14:47:28;5.40;99.90
36752;DHT22;22718;49.494;7.036;2023-12-20T14:49:54;5.40;99.90
36752;DHT22;22718;49.494;7.036;2023-12-20T14:52:20;5.40;99.90
36752;DHT22;22718;49.494;7.036;2023-12-20T14:54:45;5.40;99.90
36752;DHT22;22718;49.494;7.036;2023-12-20T14:57:14;5.40;99.90
36752;DHT22;22718;49.494;7.036;2023-12-20T14:59:40;5.30;99.90
36752;DHT22;22718;49.494;7.036;2023-12-20T15:02:06;5.30;99.90
36752;DHT22;22718;49.494;7.036;2023-12-20T15:04:32;5.30;99.90
36752;DHT22;22718;49.494;7.036;2023-12-20T15:06:58;5.20;99.90
36752;DHT22;22718;49.494;7.036;2023-12-20T15:09:23;5.20;99.90
36752;DHT22;22718;49.494;7.036;2023-12-20T15:11:50;5.30;99.90
36752;DHT22;22718;49.494;7.036;2023-12-20T15:14:16;5.20;99.90
36752;DHT22;22718;49.494;7.036;2023-12-20T15:16:46;5.30;99.90
36752;DHT22;22718;49.494;7.036;2023-12-20T15:19:15;5.20;99.90
36752;DHT22;22718;49.494;7.036;2023-12-20T15:21:41;5.20;99.90
36752;DHT22;22718;49.494;7.036;2023-12-20T15:24:10;5.20;99.90
36752;DHT22;22718;49.494;7.036;2023-12-20T15:26:51;5.20;99.90
36752;DHT22;22718;49.494;7.036;2023-12-20T15:29:20;5.20;99.90
36752;DHT22;22718;49.494;7.036;2023-12-20T15:31:55;5.20;99.90
36752;DHT22;22718;49.494;7.036;2023-12-20T15:34:25;5.20;99.90
36752;DHT22;22718;49.494;7.036;2023-12-20T15:36:53;5.20;99.90
36752;DHT22;22718;49.494;7.036;2023-12-20T15:39:19;5.20;99.90
36752;DHT22;22718;49.494;7.036;2023-12-20T15:41:45;5.20;99.90
36752;DHT22;22718;49.494;7.036;2023-12-20T15:44:16;5.20;99.90
36752;DHT22;22718;49.494;7.036;2023-12-20T15:46:44;5.20;99.90
36752;DHT22;22718;49.494;7.036;2023-12-20T15:49:11;5.20;99.90
36752;DHT22;22718;49.494;7.036;2023-12-20T15:51:37;5.20;99.90
36752;DHT22;22718;49.494;7.036;2023-12-20T15:54:12;5.20;99.90
36752;DHT22;22718;49.494;7.036;2023-12-20T15:56:38;5.20;99.90
36752;DHT22;22718;49.494;7.036;2023-12-20T15:59:09;5.20;99.90
36752;DHT22;22718;49.494;7.036;2023-12-20T16:01:35;5.20;99.90
36752;DHT22;22718;49.494;7.036;2023-12-20T16:04:05;5.20;99.90
36752;DHT22;22718;49.494;7.036;2023-12-20T16:06:31;5.30;99.90
36752;DHT22;22718;49.494;7.036;2023-12-20T16:08:58;5.30;99.90
36752;DHT22;22718;49.494;7.036;2023-12-20T16:11:23;5.20;99.90
36752;DHT22;22718;49.494;7.036;2023-12-20T16:13:54;5.30;99.90
36752;DHT22;22718;49.494;7.036;2023-12-20T16:16:20;5.30;99.90
36752;DHT22;22718;49.494;7.036;2023-12-20T16:18:46;5.30;99.90
36752;DHT22;22718;49.494;7.036;2023-12-20T16:21:12;5.30;99.90
36752;DHT22;22718;49.494;7.036;2023-12-20T16:23:38;5.30;99.90
36752;DHT22;22718;49.494;7.036;2023-12-20T16:26:03;5.30;99.90
36752;DHT22;22718;49.494;7.036;2023-12-20T16:28:29;5.30;99.90
36752;DHT22;22718;49.494;7.036;2023-12-20T16:30:54;5.30;99.90
36752;DHT22;22718;49.494;7.036;2023-12-20T16:33:21;5.30;99.90
36752;DHT22;22718;49.494;7.036;2023-12-20T16:35:48;5.30;99.90